sensor_id;sensor_type;location;lat;lon;timestamp;temperature;humidity
80250;DHT22;69561;37.974;23.708;2023-08-01T00:00:44;30.20;36.00
80250;DHT22;69561;37.974;23.708;2023-08-01T00:03:10;30.20;36.10
80250;DHT22;69561;37.974;23.708;2023-08-01T00:05:36;30.20;36.10
80250;DHT22;69561;37.974;23.708;2023-08-01T00:08:03;30.20;36.20
80250;DHT22;69561;37.974;23.708;2023-08-01T00:10:28;30.20;36.20
80250;DHT22;69561;37.974;23.708;2023-08-01T00:12:54;30.20;36.10
80250;DHT22;69561;37.974;23.708;2023-08-01T00:15:20;30.20;36.20
80250;DHT22;69561;37.974;23.708;2023-08-01T00:17:45;30.20;36.20
80250;DHT22;69561;37.974;23.708;2023-08-01T00:20:11;30.20;36.20
80250;DHT22;69561;37.974;23.708;2023-08-01T00:22:37;30.20;36.20
80250;DHT22;69561;37.974;23.708;2023-08-01T00:25:03;30.20;36.40
80250;DHT22;69561;37.974;23.708;2023-08-01T00:27:29;30.20;36.40
80250;DHT22;69561;37.974;23.708;2023-08-01T00:29:54;30.20;36.50
80250;DHT22;69561;37.974;23.708;2023-08-01T00:32:20;30.20;36.50
80250;DHT22;69561;37.974;23.708;2023-08-01T00:34:47;30.20;36.70
80250;DHT22;69561;37.974;23.708;2023-08-01T00:37:15;30.20;36.80
80250;DHT22;69561;37.974;23.708;2023-08-01T00:39:40;30.20;36.90
80250;DHT22;69561;37.974;23.708;2023-08-01T00:42:06;30.20;37.00
80250;DHT22;69561;37.974;23.708;2023-08-01T00:44:32;30.20;37.10
80250;DHT22;69561;37.974;23.708;2023-08-01T00:46:57;30.20;37.30
80250;DHT22;69561;37.974;23.708;2023-08-01T00:49:23;30.20;37.40
80250;DHT22;69561;37.974;23.708;2023-08-01T00:51:49;30.20;37.40
80250;DHT22;69561;37.974;23.708;2023-08-01T00:54:15;30.20;37.40
80250;DHT22;69561;37.974;23.708;2023-08-01T00:56:42;30.20;37.40
80250;DHT22;69561;37.974;23.708;2023-08-01T00:59:07;30.30;37.50
80250;DHT22;69561;37.974;23.708;2023-08-01T01:01:33;30.20;37.50
80250;DHT22;69561;37.974;23.708;2023-08-01T01:03:59;30.20;37.50
80250;DHT22;69561;37.974;23.708;2023-08-01T01:08:52;30.10;38.00
80250;DHT22;69561;37.974;23.708;2023-08-01T01:11:19;30.20;38.10
80250;DHT22;69561;37.974;23.708;2023-08-01T01:13:45;30.10;38.10
80250;DHT22;69561;37.974;23.708;2023-08-01T01:16:11;30.20;38.30
80250;DHT22;69561;37.974;23.708;2023-08-01T01:18:36;30.20;38.40
80250;DHT22;69561;37.974;23.708;2023-08-01T01:21:02;30.10;38.40
80250;DHT22;69561;37.974;23.708;2023-08-01T01:23:28;30.10;38.50
80250;DHT22;69561;37.974;23.708;2023-08-01T01:25:56;30.10;38.70
80250;DHT22;69561;37.974;23.708;2023-08-01T01:28:23;30.10;38.80
80250;DHT22;69561;37.974;23.708;2023-08-01T01:30:49;30.10;38.90
80250;DHT22;69561;37.974;23.708;2023-08-01T01:33:17;30.10;38.90
80250;DHT22;69561;37.974;23.708;2023-08-01T01:35:43;30.10;39.00
80250;DHT22;69561;37.974;23.708;2023-08-01T01:38:09;30.20;39.10
80250;DHT22;69561;37.974;23.708;2023-08-01T01:40:34;30.20;39.20
80250;DHT22;69561;37.974;23.708;2023-08-01T01:43:00;30.20;39.30
80250;DHT22;69561;37.974;23.708;2023-08-01T01:45:26;30.20;39.40
80250;DHT22;69561;37.974;23.708;2023-08-01T01:47:52;30.20;39.50
80250;DHT22;69561;37.974;23.708;2023-08-01T01:50:18;30.10;39.50
80250;DHT22;69561;37.974;23.708;2023-08-01T01:52:46;30.20;39.70
80250;DHT22;69561;37.974;23.708;2023-08-01T01:55:12;30.20;39.70
80250;DHT22;69561;37.974;23.708;2023-08-01T01:57:38;30.10;39.80
80250;DHT22;69561;37.974;23.708;2023-08-01T02:00:04;30.10;39.90
80250;DHT22;69561;37.974;23.708;2023-08-01T02:02:30;30.10;40.00
80250;DHT22;69561;37.974;23.708;2023-08-01T02:04:56;30.20;40.20
80250;DHT22;69561;37.974;23.708;2023-08-01T02:07:21;30.20;40.30
80250;DHT22;69561;37.974;23.708;2023-08-01T02:09:47;30.20;40.40
80250;DHT22;69561;37.974;23.708;2023-08-01T02:12:13;30.10;40.50
80250;DHT22;69561;37.974;23.708;2023-08-01T02:14:41;30.20;40.60
80250;DHT22;69561;37.974;23.708;2023-08-01T02:17:07;30.10;40.60
80250;DHT22;69561;37.974;23.708;2023-08-01T02:19:33;30.20;40.70
80250;DHT22;69561;37.974;23.708;2023-08-01T02:21:59;30.20;40.70
80250;DHT22;69561;37.974;23.708;2023-08-01T02:24:25;30.20;40.70
80250;DHT22;69561;37.974;23.708;2023-08-01T02:26:50;30.20;40.90
80250;DHT22;69561;37.974;23.708;2023-08-01T02:29:16;30.20;41.00
80250;DHT22;69561;37.974;23.708;2023-08-01T02:31:42;30.10;40.90
80250;DHT22;69561;37.974;23.708;2023-08-01T02:34:08;30.10;41.00
80250;DHT22;69561;37.974;23.708;2023-08-01T02:36:33;30.10;41.00
80250;DHT22;69561;37.974;23.708;2023-08-01T02:38:59;30.10;41.10
80250;DHT22;69561;37.974;23.708;2023-08-01T02:41:25;30.10;41.10
80250;DHT22;69561;37.974;23.708;2023-08-01T02:43:51;30.00;41.10
80250;DHT22;69561;37.974;23.708;2023-08-01T02:46:16;30.10;41.20
80250;DHT22;69561;37.974;23.708;2023-08-01T02:48:42;30.00;41.10
80250;DHT22;69561;37.974;23.708;2023-08-01T02:51:08;30.10;41.30
80250;DHT22;69561;37.974;23.708;2023-08-01T02:53:37;30.10;41.30
80250;DHT22;69561;37.974;23.708;2023-08-01T02:56:05;30.00;41.30
80250;DHT22;69561;37.974;23.708;2023-08-01T02:58:33;30.00;41.50
80250;DHT22;69561;37.974;23.708;2023-08-01T03:00:58;30.10;41.60
80250;DHT22;69561;37.974;23.708;2023-08-01T03:03:24;30.10;41.60
80250;DHT22;69561;37.974;23.708;2023-08-01T03:05:50;30.00;41.70
80250;DHT22;69561;37.974;23.708;2023-08-01T03:08:15;30.00;41.70
80250;DHT22;69561;37.974;23.708;2023-08-01T03:10:41;30.10;41.70
80250;DHT22;69561;37.974;23.708;2023-08-01T03:13:07;30.10;41.70
80250;DHT22;69561;37.974;23.708;2023-08-01T03:15:32;30.10;41.90
80250;DHT22;69561;37.974;23.708;2023-08-01T03:17:58;30.10;41.90
80250;DHT22;69561;37.974;23.708;2023-08-01T03:20:24;30.10;41.90
80250;DHT22;69561;37.974;23.708;2023-08-01T03:22:49;30.10;41.90
80250;DHT22;69561;37.974;23.708;2023-08-01T03:25:15;30.10;41.90
80250;DHT22;69561;37.974;23.708;2023-08-01T03:27:41;30.10;41.90
80250;DHT22;69561;37.974;23.708;2023-08-01T03:30:07;30.10;42.00
80250;DHT22;69561;37.974;23.708;2023-08-01T03:32:35;30.00;42.00
80250;DHT22;69561;37.974;23.708;2023-08-01T03:35:01;30.00;42.20
80250;DHT22;69561;37.974;23.708;2023-08-01T03:37:26;30.00;42.10
80250;DHT22;69561;37.974;23.708;2023-08-01T03:39:52;30.00;42.30
80250;DHT22;69561;37.974;23.708;2023-08-01T03:42:17;30.00;42.30
80250;DHT22;69561;37.974;23.708;2023-08-01T03:44:43;30.00;42.40
80250;DHT22;69561;37.974;23.708;2023-08-01T03:47:09;30.00;42.40
80250;DHT22;69561;37.974;23.708;2023-08-01T03:49:34;30.00;42.40
80250;DHT22;69561;37.974;23.708;2023-08-01T03:52:00;30.00;42.50
80250;DHT22;69561;37.974;23.708;2023-08-01T03:54:26;30.00;42.60
80250;DHT22;69561;37.974;23.708;2023-08-01T03:56:52;30.10;42.60
80250;DHT22;69561;37.974;23.708;2023-08-01T03:59:18;30.10;42.50
80250;DHT22;69561;37.974;23.708;2023-08-01T04:01:43;30.20;42.50
80250;DHT22;69561;37.974;23.708;2023-08-01T04:04:10;30.30;44.60
80250;DHT22;69561;37.974;23.708;2023-08-01T04:06:36;30.30;43.20
80250;DHT22;69561;37.974;23.708;2023-08-01T04:09:02;30.30;43.90
80250;DHT22;69561;37.974;23.708;2023-08-01T04:11:27;30.20;43.40
80250;DHT22;69561;37.974;23.708;2023-08-01T04:13:55;30.10;43.30
80250;DHT22;69561;37.974;23.708;2023-08-01T04:16:21;30.10;43.30
80250;DHT22;69561;37.974;23.708;2023-08-01T04:18:47;30.10;43.30
80250;DHT22;69561;37.974;23.708;2023-08-01T04:21:16;30.00;43.30
80250;DHT22;69561;37.974;23.708;2023-08-01T04:23:42;30.00;43.40
80250;DHT22;69561;37.974;23.708;2023-08-01T04:26:07;29.90;43.50
80250;DHT22;69561;37.974;23.708;2023-08-01T04:28:34;29.90;43.70
80250;DHT22;69561;37.974;23.708;2023-08-01T04:31:00;29.80;43.90
80250;DHT22;69561;37.974;23.708;2023-08-01T04:33:26;29.80;44.10
80250;DHT22;69561;37.974;23.708;2023-08-01T04:35:51;29.80;44.10
80250;DHT22;69561;37.974;23.708;2023-08-01T04:38:17;29.80;44.10
80250;DHT22;69561;37.974;23.708;2023-08-01T04:40:43;29.90;44.20
80250;DHT22;69561;37.974;23.708;2023-08-01T04:43:09;29.90;44.10
80250;DHT22;69561;37.974;23.708;2023-08-01T04:45:35;29.90;44.00
80250;DHT22;69561;37.974;23.708;2023-08-01T04:48:01;30.10;43.80
80250;DHT22;69561;37.974;23.708;2023-08-01T04:50:27;30.20;43.50
80250;DHT22;69561;37.974;23.708;2023-08-01T04:52:53;30.30;43.40
80250;DHT22;69561;37.974;23.708;2023-08-01T04:55:18;30.70;43.10
80250;DHT22;69561;37.974;23.708;2023-08-01T04:57:44;31.20;42.40
80250;DHT22;69561;37.974;23.708;2023-08-01T05:00:10;31.20;42.00
80250;DHT22;69561;37.974;23.708;2023-08-01T05:02:36;31.00;42.30
80250;DHT22;69561;37.974;23.708;2023-08-01T05:05:02;30.80;42.50
80250;DHT22;69561;37.974;23.708;2023-08-01T05:07:29;30.70;42.70
80250;DHT22;69561;37.974;23.708;2023-08-01T05:09:55;30.40;43.20
80250;DHT22;69561;37.974;23.708;2023-08-01T05:12:21;30.40;43.20
80250;DHT22;69561;37.974;23.708;2023-08-01T05:14:46;30.40;43.40
80250;DHT22;69561;37.974;23.708;2023-08-01T05:17:12;30.30;43.60
80250;DHT22;69561;37.974;23.708;2023-08-01T05:19:38;30.30;43.70
80250;DHT22;69561;37.974;23.708;2023-08-01T05:22:04;30.30;43.50
80250;DHT22;69561;37.974;23.708;2023-08-01T05:24:30;30.30;43.60
80250;DHT22;69561;37.974;23.708;2023-08-01T05:26:55;30.20;43.90
80250;DHT22;69561;37.974;23.708;2023-08-01T05:29:21;30.20;44.10
80250;DHT22;69561;37.974;23.708;2023-08-01T05:31:47;30.20;44.00
80250;DHT22;69561;37.974;23.708;2023-08-01T05:34:12;30.20;44.00
80250;DHT22;69561;37.974;23.708;2023-08-01T06:06:41;30.20;43.70
80250;DHT22;69561;37.974;23.708;2023-08-01T06:09:06;30.20;43.90
80250;DHT22;69561;37.974;23.708;2023-08-01T06:11:32;30.20;43.90
80250;DHT22;69561;37.974;23.708;2023-08-01T06:13:59;30.20;43.80
80250;DHT22;69561;37.974;23.708;2023-08-01T06:16:25;30.20;44.00
80250;DHT22;69561;37.974;23.708;2023-08-01T06:18:52;30.30;44.00
80250;DHT22;69561;37.974;23.708;2023-08-01T06:21:18;30.20;44.20
80250;DHT22;69561;37.974;23.708;2023-08-01T06:23:44;30.30;44.20
80250;DHT22;69561;37.974;23.708;2023-08-01T06:26:10;30.20;44.30
80250;DHT22;69561;37.974;23.708;2023-08-01T06:28:35;30.30;44.20
80250;DHT22;69561;37.974;23.708;2023-08-01T06:31:01;30.30;44.30
80250;DHT22;69561;37.974;23.708;2023-08-01T06:33:28;30.30;44.50
80250;DHT22;69561;37.974;23.708;2023-08-01T06:36:17;30.30;44.40
80250;DHT22;69561;37.974;23.708;2023-08-01T06:38:43;30.30;44.50
80250;DHT22;69561;37.974;23.708;2023-08-01T06:41:09;30.30;44.30
80250;DHT22;69561;37.974;23.708;2023-08-01T06:43:35;30.30;44.40
80250;DHT22;69561;37.974;23.708;2023-08-01T06:46:04;30.30;44.40
80250;DHT22;69561;37.974;23.708;2023-08-01T06:48:33;30.30;44.30
80250;DHT22;69561;37.974;23.708;2023-08-01T06:51:01;30.20;45.30
80250;DHT22;69561;37.974;23.708;2023-08-01T06:53:28;30.20;44.40
80250;DHT22;69561;37.974;23.708;2023-08-01T06:55:54;30.30;44.40
80250;DHT22;69561;37.974;23.708;2023-08-01T06:58:20;30.30;44.40
80250;DHT22;69561;37.974;23.708;2023-08-01T07:00:46;30.30;44.40
80250;DHT22;69561;37.974;23.708;2023-08-01T07:03:11;30.30;44.20
80250;DHT22;69561;37.974;23.708;2023-08-01T07:05:38;30.30;44.30
80250;DHT22;69561;37.974;23.708;2023-08-01T07:08:04;30.40;43.90
80250;DHT22;69561;37.974;23.708;2023-08-01T07:10:30;30.40;43.80
80250;DHT22;69561;37.974;23.708;2023-08-01T07:12:55;30.40;43.50
80250;DHT22;69561;37.974;23.708;2023-08-01T07:15:21;30.40;43.50
80250;DHT22;69561;37.974;23.708;2023-08-01T07:17:47;30.40;43.60
80250;DHT22;69561;37.974;23.708;2023-08-01T07:20:13;30.40;43.50
80250;DHT22;69561;37.974;23.708;2023-08-01T07:22:38;30.40;43.60
80250;DHT22;69561;37.974;23.708;2023-08-01T07:25:05;30.40;43.50
80250;DHT22;69561;37.974;23.708;2023-08-01T07:27:30;30.40;43.50
80250;DHT22;69561;37.974;23.708;2023-08-01T07:29:56;30.50;43.40
80250;DHT22;69561;37.974;23.708;2023-08-01T07:32:22;30.40;43.40
80250;DHT22;69561;37.974;23.708;2023-08-01T07:34:47;30.50;43.50
80250;DHT22;69561;37.974;23.708;2023-08-01T07:37:13;30.50;43.30
80250;DHT22;69561;37.974;23.708;2023-08-01T07:39:39;30.60;44.30
80250;DHT22;69561;37.974;23.708;2023-08-01T07:42:05;30.60;43.30
80250;DHT22;69561;37.974;23.708;2023-08-01T07:44:31;30.60;43.30
80250;DHT22;69561;37.974;23.708;2023-08-01T07:46:57;30.50;43.20
80250;DHT22;69561;37.974;23.708;2023-08-01T07:49:23;30.50;43.20
80250;DHT22;69561;37.974;23.708;2023-08-01T07:51:49;30.50;43.30
80250;DHT22;69561;37.974;23.708;2023-08-01T07:54:18;30.50;43.60
80250;DHT22;69561;37.974;23.708;2023-08-01T08:00:15;30.50;43.90
80250;DHT22;69561;37.974;23.708;2023-08-01T08:02:45;30.50;43.60
80250;DHT22;69561;37.974;23.708;2023-08-01T08:05:12;30.60;43.40
80250;DHT22;69561;37.974;23.708;2023-08-01T08:07:38;30.60;44.10
80250;DHT22;69561;37.974;23.708;2023-08-01T08:10:06;30.60;43.30
80250;DHT22;69561;37.974;23.708;2023-08-01T08:12:33;30.60;43.20
80250;DHT22;69561;37.974;23.708;2023-08-01T08:14:59;30.60;43.20
80250;DHT22;69561;37.974;23.708;2023-08-01T08:17:24;30.70;43.20
80250;DHT22;69561;37.974;23.708;2023-08-01T08:19:51;30.70;43.00
80250;DHT22;69561;37.974;23.708;2023-08-01T08:22:18;30.70;43.00
80250;DHT22;69561;37.974;23.708;2023-08-01T08:24:44;30.70;43.10
80250;DHT22;69561;37.974;23.708;2023-08-01T08:27:15;30.70;43.20
80250;DHT22;69561;37.974;23.708;2023-08-01T08:29:41;30.70;43.00
80250;DHT22;69561;37.974;23.708;2023-08-01T08:32:07;30.70;43.20
80250;DHT22;69561;37.974;23.708;2023-08-01T08:34:33;30.70;43.10
80250;DHT22;69561;37.974;23.708;2023-08-01T08:36:59;30.70;43.10
80250;DHT22;69561;37.974;23.708;2023-08-01T08:39:24;30.70;43.10
80250;DHT22;69561;37.974;23.708;2023-08-01T08:41:53;30.70;43.10
80250;DHT22;69561;37.974;23.708;2023-08-01T08:44:49;30.80;44.20
80250;DHT22;69561;37.974;23.708;2023-08-01T08:47:17;30.80;43.30
80250;DHT22;69561;37.974;23.708;2023-08-01T08:49:45;30.70;43.20
80250;DHT22;69561;37.974;23.708;2023-08-01T08:52:12;30.70;43.30
80250;DHT22;69561;37.974;23.708;2023-08-01T08:54:38;30.80;43.10
80250;DHT22;69561;37.974;23.708;2023-08-01T08:57:07;30.80;43.10
80250;DHT22;69561;37.974;23.708;2023-08-01T08:59:33;30.70;43.00
80250;DHT22;69561;37.974;23.708;2023-08-01T09:02:02;30.80;43.10
80250;DHT22;69561;37.974;23.708;2023-08-01T09:04:29;30.80;43.00
80250;DHT22;69561;37.974;23.708;2023-08-01T09:06:58;30.90;43.00
80250;DHT22;69561;37.974;23.708;2023-08-01T09:09:26;30.90;42.70
80250;DHT22;69561;37.974;23.708;2023-08-01T09:11:53;30.90;42.40
80250;DHT22;69561;37.974;23.708;2023-08-01T09:14:22;30.90;42.40
80250;DHT22;69561;37.974;23.708;2023-08-01T09:16:48;30.90;42.50
80250;DHT22;69561;37.974;23.708;2023-08-01T09:19:23;31.00;42.80
80250;DHT22;69561;37.974;23.708;2023-08-01T09:21:49;31.00;42.90
80250;DHT22;69561;37.974;23.708;2023-08-01T09:24:17;31.00;42.90
80250;DHT22;69561;37.974;23.708;2023-08-01T09:26:44;30.90;42.70
80250;DHT22;69561;37.974;23.708;2023-08-01T09:29:11;31.00;42.60
80250;DHT22;69561;37.974;23.708;2023-08-01T09:31:41;30.90;42.30
80250;DHT22;69561;37.974;23.708;2023-08-01T09:34:19;31.00;42.20
80250;DHT22;69561;37.974;23.708;2023-08-01T09:36:45;31.00;42.00
80250;DHT22;69561;37.974;23.708;2023-08-01T09:39:16;31.00;41.90
80250;DHT22;69561;37.974;23.708;2023-08-01T09:41:42;31.00;42.10
80250;DHT22;69561;37.974;23.708;2023-08-01T09:44:15;31.00;41.90
80250;DHT22;69561;37.974;23.708;2023-08-01T09:46:41;31.00;41.60
80250;DHT22;69561;37.974;23.708;2023-08-01T09:49:17;31.00;41.60
80250;DHT22;69561;37.974;23.708;2023-08-01T09:51:54;31.10;42.60
80250;DHT22;69561;37.974;23.708;2023-08-01T09:54:30;31.10;41.70
80250;DHT22;69561;37.974;23.708;2023-08-01T09:57:22;31.00;41.60
80250;DHT22;69561;37.974;23.708;2023-08-01T09:59:55;31.00;41.40
80250;DHT22;69561;37.974;23.708;2023-08-01T10:02:26;31.10;41.30
80250;DHT22;69561;37.974;23.708;2023-08-01T10:04:58;31.00;41.40
80250;DHT22;69561;37.974;23.708;2023-08-01T10:07:28;31.10;41.00
80250;DHT22;69561;37.974;23.708;2023-08-01T10:09:58;31.10;40.90
80250;DHT22;69561;37.974;23.708;2023-08-01T10:12:26;31.10;40.60
80250;DHT22;69561;37.974;23.708;2023-08-01T10:17:41;31.10;40.30
80250;DHT22;69561;37.974;23.708;2023-08-01T10:20:08;31.10;40.40
80250;DHT22;69561;37.974;23.708;2023-08-01T10:22:34;31.10;41.40
80250;DHT22;69561;37.974;23.708;2023-08-01T10:25:01;31.00;40.40
80250;DHT22;69561;37.974;23.708;2023-08-01T10:27:28;31.00;40.50
80250;DHT22;69561;37.974;23.708;2023-08-01T10:30:05;30.90;40.70
80250;DHT22;69561;37.974;23.708;2023-08-01T10:32:34;30.90;41.10
80250;DHT22;69561;37.974;23.708;2023-08-01T10:35:01;30.80;40.90
80250;DHT22;69561;37.974;23.708;2023-08-01T10:37:42;30.70;41.00
80250;DHT22;69561;37.974;23.708;2023-08-01T10:40:13;30.80;41.20
80250;DHT22;69561;37.974;23.708;2023-08-01T10:42:40;30.80;41.40
80250;DHT22;69561;37.974;23.708;2023-08-01T10:45:07;30.70;41.40
80250;DHT22;69561;37.974;23.708;2023-08-01T10:47:52;30.70;41.60
80250;DHT22;69561;37.974;23.708;2023-08-01T10:50:18;30.70;41.70
80250;DHT22;69561;37.974;23.708;2023-08-01T10:52:45;30.70;41.90
80250;DHT22;69561;37.974;23.708;2023-08-01T10:55:12;30.70;41.90
80250;DHT22;69561;37.974;23.708;2023-08-01T10:57:48;30.70;41.90
80250;DHT22;69561;37.974;23.708;2023-08-01T11:00:18;30.70;42.10
80250;DHT22;69561;37.974;23.708;2023-08-01T11:02:52;30.70;42.30
80250;DHT22;69561;37.974;23.708;2023-08-01T11:05:18;30.60;42.40
80250;DHT22;69561;37.974;23.708;2023-08-01T11:07:57;30.60;42.50
80250;DHT22;69561;37.974;23.708;2023-08-01T11:10:28;30.60;42.50
80250;DHT22;69561;37.974;23.708;2023-08-01T11:12:54;30.60;42.60
80250;DHT22;69561;37.974;23.708;2023-08-01T11:15:21;30.60;43.60
80250;DHT22;69561;37.974;23.708;2023-08-01T11:17:51;30.60;42.60
80250;DHT22;69561;37.974;23.708;2023-08-01T11:20:19;30.60;42.70
80250;DHT22;69561;37.974;23.708;2023-08-01T11:22:59;30.60;42.80
80250;DHT22;69561;37.974;23.708;2023-08-01T11:25:34;30.60;42.80
80250;DHT22;69561;37.974;23.708;2023-08-01T11:28:09;30.60;42.80
80250;DHT22;69561;37.974;23.708;2023-08-01T11:30:38;30.60;42.90
80250;DHT22;69561;37.974;23.708;2023-08-01T11:33:34;30.50;43.10
80250;DHT22;69561;37.974;23.708;2023-08-01T11:36:00;30.50;43.80
80250;DHT22;69561;37.974;23.708;2023-08-01T11:38:27;30.50;44.10
80250;DHT22;69561;37.974;23.708;2023-08-01T11:40:59;30.40;44.50
80250;DHT22;69561;37.974;23.708;2023-08-01T11:43:25;30.40;44.80
80250;DHT22;69561;37.974;23.708;2023-08-01T11:45:56;30.30;45.20
80250;DHT22;69561;37.974;23.708;2023-08-01T11:48:22;30.30;45.60
80250;DHT22;69561;37.974;23.708;2023-08-01T11:50:49;30.20;45.70
80250;DHT22;69561;37.974;23.708;2023-08-01T11:53:21;30.20;45.90
80250;DHT22;69561;37.974;23.708;2023-08-01T11:55:50;30.20;46.10
80250;DHT22;69561;37.974;23.708;2023-08-01T11:58:30;30.20;46.00
80250;DHT22;69561;37.974;23.708;2023-08-01T12:01:10;30.30;46.10
80250;DHT22;69561;37.974;23.708;2023-08-01T12:04:05;30.20;46.10
80250;DHT22;69561;37.974;23.708;2023-08-01T12:06:32;30.20;46.30
80250;DHT22;69561;37.974;23.708;2023-08-01T12:09:12;30.20;46.70
80250;DHT22;69561;37.974;23.708;2023-08-01T12:11:41;30.10;46.90
80250;DHT22;69561;37.974;23.708;2023-08-01T12:14:10;30.10;47.10
80250;DHT22;69561;37.974;23.708;2023-08-01T12:16:40;30.10;47.20
80250;DHT22;69561;37.974;23.708;2023-08-01T12:19:07;30.10;47.30
80250;DHT22;69561;37.974;23.708;2023-08-01T12:21:34;30.10;47.50
80250;DHT22;69561;37.974;23.708;2023-08-01T12:24:01;30.10;47.50
80250;DHT22;69561;37.974;23.708;2023-08-01T12:26:27;30.00;47.30
80250;DHT22;69561;37.974;23.708;2023-08-01T12:28:53;30.10;47.30
80250;DHT22;69561;37.974;23.708;2023-08-01T12:31:20;30.00;47.10
80250;DHT22;69561;37.974;23.708;2023-08-01T12:33:46;30.10;47.90
80250;DHT22;69561;37.974;23.708;2023-08-01T12:36:13;30.10;46.70
80250;DHT22;69561;37.974;23.708;2023-08-01T12:38:39;30.10;46.40
80250;DHT22;69561;37.974;23.708;2023-08-01T12:41:06;30.00;46.10
80250;DHT22;69561;37.974;23.708;2023-08-01T12:43:32;30.00;46.00
80250;DHT22;69561;37.974;23.708;2023-08-01T12:45:58;30.00;45.80
80250;DHT22;69561;37.974;23.708;2023-08-01T12:48:25;30.00;45.60
80250;DHT22;69561;37.974;23.708;2023-08-01T12:50:51;29.90;45.40
80250;DHT22;69561;37.974;23.708;2023-08-01T12:53:17;29.90;45.30
80250;DHT22;69561;37.974;23.708;2023-08-01T12:55:44;29.90;45.20
80250;DHT22;69561;37.974;23.708;2023-08-01T12:58:13;29.90;45.20
80250;DHT22;69561;37.974;23.708;2023-08-01T13:00:40;29.90;45.10
80250;DHT22;69561;37.974;23.708;2023-08-01T13:03:07;29.90;45.00
80250;DHT22;69561;37.974;23.708;2023-08-01T13:05:37;29.80;44.90
80250;DHT22;69561;37.974;23.708;2023-08-01T13:08:05;29.80;44.90
80250;DHT22;69561;37.974;23.708;2023-08-01T13:10:34;29.80;44.80
80250;DHT22;69561;37.974;23.708;2023-08-01T13:13:00;29.80;44.70
80250;DHT22;69561;37.974;23.708;2023-08-01T13:15:27;29.80;44.70
80250;DHT22;69561;37.974;23.708;2023-08-01T13:17:53;29.80;44.70
80250;DHT22;69561;37.974;23.708;2023-08-01T13:20:19;29.80;44.70
80250;DHT22;69561;37.974;23.708;2023-08-01T13:22:46;29.80;44.60
80250;DHT22;69561;37.974;23.708;2023-08-01T13:25:16;29.80;44.50
80250;DHT22;69561;37.974;23.708;2023-08-01T13:27:42;29.80;44.30
80250;DHT22;69561;37.974;23.708;2023-08-01T13:30:08;29.80;44.30
80250;DHT22;69561;37.974;23.708;2023-08-01T13:32:35;29.80;44.20
80250;DHT22;69561;37.974;23.708;2023-08-01T13:35:01;29.80;44.20
80250;DHT22;69561;37.974;23.708;2023-08-01T13:37:27;29.80;44.10
80250;DHT22;69561;37.974;23.708;2023-08-01T13:39:56;29.80;44.10
80250;DHT22;69561;37.974;23.708;2023-08-01T13:42:22;29.80;43.90
80250;DHT22;69561;37.974;23.708;2023-08-01T13:44:47;29.80;44.00
80250;DHT22;69561;37.974;23.708;2023-08-01T13:47:13;29.90;44.00
80250;DHT22;69561;37.974;23.708;2023-08-01T13:49:39;29.80;43.90
80250;DHT22;69561;37.974;23.708;2023-08-01T13:52:05;29.90;44.00
80250;DHT22;69561;37.974;23.708;2023-08-01T13:54:31;29.80;43.90
80250;DHT22;69561;37.974;23.708;2023-08-01T13:56:57;29.80;43.90
80250;DHT22;69561;37.974;23.708;2023-08-01T13:59:23;29.80;43.90
80250;DHT22;69561;37.974;23.708;2023-08-01T14:01:49;29.80;43.90
80250;DHT22;69561;37.974;23.708;2023-08-01T14:04:15;29.80;44.00
80250;DHT22;69561;37.974;23.708;2023-08-01T14:06:41;29.90;43.90
80250;DHT22;69561;37.974;23.708;2023-08-01T14:09:08;29.80;43.90
80250;DHT22;69561;37.974;23.708;2023-08-01T14:11:37;29.80;44.10
80250;DHT22;69561;37.974;23.708;2023-08-01T14:14:03;29.80;43.90
80250;DHT22;69561;37.974;23.708;2023-08-01T14:16:29;29.80;43.90
80250;DHT22;69561;37.974;23.708;2023-08-01T14:18:56;29.80;43.80
80250;DHT22;69561;37.974;23.708;2023-08-01T14:21:21;29.80;43.80
80250;DHT22;69561;37.974;23.708;2023-08-01T14:23:47;29.80;43.80
80250;DHT22;69561;37.974;23.708;2023-08-01T14:26:13;29.80;43.90
80250;DHT22;69561;37.974;23.708;2023-08-01T14:28:39;29.80;43.90
80250;DHT22;69561;37.974;23.708;2023-08-01T14:31:05;29.80;44.00
80250;DHT22;69561;37.974;23.708;2023-08-01T14:33:32;29.80;43.90
80250;DHT22;69561;37.974;23.708;2023-08-01T14:35:59;29.70;43.90
80250;DHT22;69561;37.974;23.708;2023-08-01T14:38:24;29.80;44.00
80250;DHT22;69561;37.974;23.708;2023-08-01T14:40:52;29.80;44.10
80250;DHT22;69561;37.974;23.708;2023-08-01T14:43:18;29.80;44.10
80250;DHT22;69561;37.974;23.708;2023-08-01T14:45:43;29.80;44.10
80250;DHT22;69561;37.974;23.708;2023-08-01T14:48:09;29.80;44.10
80250;DHT22;69561;37.974;23.708;2023-08-01T14:50:35;29.80;44.10
80250;DHT22;69561;37.974;23.708;2023-08-01T14:53:02;29.80;44.10
80250;DHT22;69561;37.974;23.708;2023-08-01T14:55:29;29.80;44.10
80250;DHT22;69561;37.974;23.708;2023-08-01T14:57:54;29.80;44.10
80250;DHT22;69561;37.974;23.708;2023-08-01T15:00:20;29.80;44.20
80250;DHT22;69561;37.974;23.708;2023-08-01T15:02:46;29.70;44.30
80250;DHT22;69561;37.974;23.708;2023-08-01T15:05:13;29.70;44.50
80250;DHT22;69561;37.974;23.708;2023-08-01T15:07:39;29.70;44.80
80250;DHT22;69561;37.974;23.708;2023-08-01T15:10:05;29.70;45.40
80250;DHT22;69561;37.974;23.708;2023-08-01T15:12:31;29.70;45.40
80250;DHT22;69561;37.974;23.708;2023-08-01T15:14:57;29.80;45.40
80250;DHT22;69561;37.974;23.708;2023-08-01T15:17:23;29.80;45.40
80250;DHT22;69561;37.974;23.708;2023-08-01T15:19:49;29.80;45.20
80250;DHT22;69561;37.974;23.708;2023-08-01T15:22:18;29.80;45.30
80250;DHT22;69561;37.974;23.708;2023-08-01T15:24:45;29.80;45.20
80250;DHT22;69561;37.974;23.708;2023-08-01T15:27:11;29.80;45.10
80250;DHT22;69561;37.974;23.708;2023-08-01T15:29:37;29.80;45.20
80250;DHT22;69561;37.974;23.708;2023-08-01T15:32:04;29.90;45.10
80250;DHT22;69561;37.974;23.708;2023-08-01T15:34:29;29.90;45.20
80250;DHT22;69561;37.974;23.708;2023-08-01T15:36:55;29.90;45.00
80250;DHT22;69561;37.974;23.708;2023-08-01T15:39:21;30.00;45.10
80250;DHT22;69561;37.974;23.708;2023-08-01T15:41:47;30.00;45.10
80250;DHT22;69561;37.974;23.708;2023-08-01T15:44:13;30.00;45.00
80250;DHT22;69561;37.974;23.708;2023-08-01T15:46:39;30.00;45.00
80250;DHT22;69561;37.974;23.708;2023-08-01T15:49:05;30.10;45.00
80250;DHT22;69561;37.974;23.708;2023-08-01T15:51:31;30.10;44.90
80250;DHT22;69561;37.974;23.708;2023-08-01T15:53:57;30.10;45.00